Time;durP1;ratioP1;P1;durP2;ratioP2;P2;SDS_P1;SDS_P2;PMS_P1;PMS_P2;Temp;Humidity;BMP_temperature;BMP_pressure;BME280_temperature;BME280_humidity;BME280_pressure;Samples;Min_cycle;Max_cycle;Signal;HPM_P1;HPM_P2
2023/02/25 00:01:43;;;;;;;42.40;39.63;;;;;;;2.84;84.90;96814.09;5047676;28;20480;-76
2023/02/25 00:04:08;;;;;;;43.00;40.13;;;;;;;2.76;84.98;96813.38;5039997;28;20063;-76
2023/02/25 00:06:33;;;;;;;36.95;34.45;;;;;;;2.74;85.17;96819.97;5058030;28;20025;-76
2023/02/25 00:08:59;;;;;;;41.80;39.00;;;;;;;2.68;85.46;96826.97;5034060;28;20120;-76
2023/02/25 00:11:25;;;;;;;41.83;39.13;;;;;;;2.71;85.49;96831.84;5030815;28;20026;-76
2023/02/25 00:13:51;;;;;;;38.92;36.30;;;;;;;2.80;85.26;96833.13;5049865;28;20503;-76
2023/02/25 00:16:17;;;;;;;38.40;35.90;;;;;;;2.80;84.77;96835.00;5017523;28;20099;-76
2023/02/25 00:18:45;;;;;;;38.85;36.40;;;;;;;2.79;85.14;96834.19;5050116;28;20094;-76
2023/02/25 00:21:14;;;;;;;40.05;37.35;;;;;;;2.80;84.46;96841.13;5050574;28;20052;-76
2023/02/25 00:23:43;;;;;;;38.85;36.35;;;;;;;2.77;84.22;96838.94;5021112;28;20036;-76
2023/02/25 00:26:10;;;;;;;41.78;39.08;;;;;;;2.78;84.97;96832.56;5031453;28;20060;-76
2023/02/25 00:28:36;;;;;;;39.42;36.83;;;;;;;2.80;84.22;96837.66;5041503;28;20086;-76
2023/02/25 00:31:11;;;;;;;44.33;41.53;;;;;;;2.67;84.49;96830.69;5039727;28;20048;-76
2023/02/25 00:33:40;;;;;;;39.78;37.00;;;;;;;2.67;85.45;96841.34;5046928;28;20039;-76
2023/02/25 00:36:12;;;;;;;44.20;41.15;;;;;;;2.78;85.51;96843.19;5026231;28;20036;-77
2023/02/25 00:38:37;;;;;;;37.25;34.65;;;;;;;2.77;85.18;96840.78;5040033;28;20068;-77
2023/02/25 00:41:09;;;;;;;38.22;35.50;;;;;;;2.80;84.68;96835.78;5047133;28;20025;-76
2023/02/25 00:43:34;;;;;;;37.97;35.08;;;;;;;2.74;85.58;96830.59;5046672;28;20052;-77
2023/02/25 00:46:00;;;;;;;38.80;36.20;;;;;;;2.77;84.89;96841.59;5063768;28;20480;-76
2023/02/25 00:48:25;;;;;;;40.53;37.63;;;;;;;2.79;85.25;96839.50;5050161;28;20078;-76
2023/02/25 00:50:50;;;;;;;38.03;35.13;;;;;;;2.86;84.37;96838.59;5030435;28;20552;-76
2023/02/25 00:53:16;;;;;;;37.53;35.00;;;;;;;2.77;84.06;96846.91;5040974;28;20075;-77
2023/02/25 00:55:41;;;;;;;38.28;35.60;;;;;;;2.80;84.36;96830.47;5050204;28;20526;-77
2023/02/25 00:58:06;;;;;;;40.72;37.75;;;;;;;2.83;84.57;96839.03;5050241;28;20033;-76
2023/02/25 01:00:32;;;;;;;38.67;36.08;;;;;;;2.72;85.06;96833.50;5049814;28;20395;-77
2023/02/25 01:02:58;;;;;;;37.75;34.97;;;;;;;2.79;84.52;96844.81;5029947;28;20124;-78
2023/02/25 01:05:23;;;;;;;39.42;36.65;;;;;;;2.75;84.74;96840.97;5045588;28;20071;-76
2023/02/25 01:07:49;;;;;;;35.88;33.40;;;;;;;2.93;84.40;96844.59;5049942;28;20044;-76
2023/02/25 01:10:14;;;;;;;36.83;34.20;;;;;;;2.80;84.53;96830.47;5051121;28;20020;-77
2023/02/25 01:12:40;;;;;;;31.80;29.60;;;;;;;2.83;84.03;96839.03;5049987;28;20469;-76
2023/02/25 01:15:06;;;;;;;34.47;31.88;;;;;;;2.77;84.28;96836.28;5032900;28;20082;-75
2023/02/25 01:17:32;;;;;;;34.33;31.90;;;;;;;2.73;84.72;96845.72;5049932;28;20443;-75
2023/02/25 01:19:58;;;;;;;34.30;31.65;;;;;;;2.78;84.40;96837.88;5067621;28;20029;-77
2023/02/25 01:22:24;;;;;;;32.45;30.13;;;;;;;2.77;83.94;96840.78;5047773;28;20052;-78
2023/02/25 01:24:49;;;;;;;33.25;30.88;;;;;;;2.76;84.39;96850.59;5030553;28;20444;-78
2023/02/25 01:27:14;;;;;;;34.35;31.83;;;;;;;2.79;84.35;96850.16;5034445;28;20156;-77
2023/02/25 01:29:41;;;;;;;35.97;33.33;;;;;;;2.79;84.89;96852.81;5035561;28;20718;-75
2023/02/25 01:32:10;;;;;;;35.90;33.55;;;;;;;2.69;84.74;96844.56;5053917;28;20033;-77
2023/02/25 01:34:36;;;;;;;34.90;32.47;;;;;;;2.83;83.65;96849.66;5053840;28;20036;-78
2023/02/25 01:37:02;;;;;;;35.63;33.10;;;;;;;2.77;84.46;96846.91;5017062;28;20041;-77
2023/02/25 01:39:27;;;;;;;34.10;31.67;;;;;;;2.80;84.25;96846.44;5047002;28;20469;-76
2023/02/25 01:41:54;;;;;;;34.20;31.67;;;;;;;2.85;83.47;96852.94;5033594;28;20036;-74
2023/02/25 01:44:33;;;;;;;28.60;26.60;;;;;;;2.85;82.91;96856.38;5080402;28;20021;-75
2023/02/25 01:47:00;;;;;;;31.70;29.30;;;;;;;2.82;83.29;96848.06;5053431;28;20047;-77
2023/02/25 01:49:42;;;;;;;30.48;28.20;;;;;;;2.75;82.77;96854.28;5059573;28;20480;-78
2023/02/25 01:52:12;;;;;;;29.77;27.63;;;;;;;2.72;83.10;96860.06;5042038;28;20116;-77
2023/02/25 01:54:37;;;;;;;29.45;27.10;;;;;;;2.74;82.89;96863.31;5053368;28;20044;-77
2023/02/25 01:57:08;;;;;;;31.70;29.45;;;;;;;2.73;82.83;96866.97;5053270;28;20025;-75
2023/02/25 01:59:34;;;;;;;28.08;26.10;;;;;;;2.67;82.61;96867.91;5036593;28;20033;-74
2023/02/25 02:02:00;;;;;;;23.58;21.80;;;;;;;2.75;81.93;96867.56;5036133;28;20124;-75
2023/02/25 02:04:25;;;;;;;23.98;22.17;;;;;;;2.71;81.11;96857.63;5036512;28;20553;-76
2023/02/25 02:06:51;;;;;;;23.42;21.38;;;;;;;2.70;81.26;96861.31;5072502;28;20028;-75
2023/02/25 02:09:27;;;;;;;22.65;20.42;;;;;;;2.64;80.71;96846.28;5046798;28;20051;-76
2023/02/25 02:11:56;;;;;;;18.88;17.10;;;;;;;2.67;80.90;96854.63;5036594;28;20040;-75
2023/02/25 02:14:32;;;;;;;20.58;18.85;;;;;;;2.64;81.98;96848.94;5032887;28;20481;-76
2023/02/25 02:17:18;;;;;;;19.10;17.30;;;;;;;2.65;80.07;96843.41;5032302;28;20029;-76
2023/02/25 02:19:47;;;;;;;18.10;16.60;;;;;;;2.61;80.05;96842.22;5044114;28;20044;-76
2023/02/25 02:22:17;;;;;;;18.45;16.95;;;;;;;2.58;80.47;96848.00;5040599;28;20119;-75
2023/02/25 02:25:21;;;;;;;18.70;16.98;;;;;;;2.59;80.61;96849.63;5052350;28;20048;-75
2023/02/25 02:28:14;;;;;;;18.05;16.52;;;;;;;2.56;81.62;96849.28;5058584;28;20087;-75
2023/02/25 02:30:50;;;;;;;16.20;14.65;;;;;;;2.60;80.00;96845.94;5049247;28;20036;-74
2023/02/25 02:33:32;;;;;;;15.25;13.85;;;;;;;2.60;80.05;96851.25;5048164;28;20412;-77
2023/02/25 02:36:25;;;;;;;18.45;16.65;;;;;;;2.60;80.37;96851.25;5049922;28;20046;-77
2023/02/25 02:38:59;;;;;;;17.83;16.40;;;;;;;2.58;80.17;96839.22;5053699;28;20029;-77
2023/02/25 02:41:31;;;;;;;17.58;16.10;;;;;;;2.58;79.81;96837.38;5052192;28;20052;-77
2023/02/25 02:44:07;;;;;;;18.95;17.58;;;;;;;2.60;80.90;96830.00;5052091;28;20038;-77
2023/02/25 02:46:37;;;;;;;18.00;16.58;;;;;;;2.59;80.31;96841.63;5035805;28;20036;-75
2023/02/25 02:49:11;;;;;;;16.00;14.68;;;;;;;2.58;80.00;96829.41;5052215;28;20041;-75
2023/02/25 02:52:03;;;;;;;15.52;14.32;;;;;;;2.61;79.32;96836.91;5032310;28;20036;-75
2023/02/25 02:54:35;;;;;;;12.05;10.88;;;;;;;2.60;77.84;96834.50;5048385;28;20049;-76
2023/02/25 02:57:02;;;;;;;14.27;13.02;;;;;;;2.59;79.48;96844.28;5035510;28;20033;-76
2023/02/25 02:59:41;;;;;;;13.93;12.55;;;;;;;2.62;79.30;96843.84;5048733;28;20029;-76
2023/02/25 03:02:12;;;;;;;13.20;11.95;;;;;;;2.59;78.23;96843.50;5044990;28;20140;-76
2023/02/25 03:04:40;;;;;;;13.77;12.55;;;;;;;2.63;78.55;96850.81;5038568;28;20118;-75
2023/02/25 03:07:08;;;;;;;12.10;10.45;;;;;;;2.62;77.62;96849.16;5039364;28;20016;-76
2023/02/25 03:09:46;;;;;;;11.15;9.98;;;;;;;2.70;77.43;96846.19;5044917;28;20098;-76
2023/02/25 03:12:11;;;;;;;14.98;10.30;;;;;;;2.59;78.24;96838.97;5018862;28;20036;-75
2023/02/25 03:14:37;;;;;;;14.30;10.65;;;;;;;2.67;78.11;96841.34;5035278;28;20528;-76
2023/02/25 03:17:11;;;;;;;9.80;8.38;;;;;;;2.60;77.52;96851.25;5064459;22;20101;-77
2023/02/25 03:19:36;;;;;;;14.00;12.57;;;;;;;2.60;78.64;96861.06;5052568;28;20040;-76
2023/02/25 03:22:30;;;;;;;12.10;10.70;;;;;;;2.67;78.63;96857.28;5064100;28;20028;-77
2023/02/25 03:25:19;;;;;;;14.52;13.23;;;;;;;2.53;79.15;96853.19;5069469;28;20040;-78
2023/02/25 03:27:48;;;;;;;14.05;12.90;;;;;;;2.51;79.44;96863.25;5052653;28;20452;-75
2023/02/25 03:30:20;;;;;;;17.63;15.93;;;;;;;2.55;79.72;96867.06;5020778;28;20017;-77
2023/02/25 03:32:50;;;;;;;14.80;13.52;;;;;;;2.55;79.63;96863.59;5052407;28;20037;-76
2023/02/25 03:35:18;;;;;;;15.93;14.57;;;;;;;2.50;79.88;96861.59;5035414;28;20103;-77
2023/02/25 03:37:47;;;;;;;13.88;12.73;;;;;;;2.51;79.62;96857.94;5035711;28;20025;-78
2023/02/25 03:40:14;;;;;;;14.68;13.63;;;;;;;2.54;78.80;96868.09;5035925;28;20035;-77
2023/02/25 03:42:47;;;;;;;13.27;11.98;;;;;;;2.47;78.66;96859.41;5035304;28;20517;-77
2023/02/25 03:45:14;;;;;;;13.15;11.85;;;;;;;2.50;79.52;96877.53;5035550;28;20037;-77
2023/02/25 03:47:41;;;;;;;12.57;11.45;;;;;;;2.58;78.75;96890.53;5034951;28;20542;-75
2023/02/25 03:50:30;;;;;;;12.80;11.70;;;;;;;2.56;78.13;96891.78;5034397;28;20032;-74
2023/02/25 03:52:59;;;;;;;11.10;9.45;;;;;;;2.58;78.09;96895.03;5040761;28;20128;-77
2023/02/25 03:55:44;;;;;;;11.07;10.02;;;;;;;2.58;78.31;96898.50;5045671;28;20572;-77
2023/02/25 03:58:09;;;;;;;12.48;10.20;;;;;;;2.61;78.47;96910.53;5050679;28;20115;-74
2023/02/25 04:00:36;;;;;;;12.05;11.05;;;;;;;2.59;78.50;96908.06;5017736;28;20120;-75
2023/02/25 04:03:03;;;;;;;13.30;11.15;;;;;;;2.70;77.94;96909.97;5033959;28;20036;-76
2023/02/25 04:05:28;;;;;;;12.30;11.10;;;;;;;2.67;78.93;96910.44;5034174;28;20027;-75
2023/02/25 04:07:55;;;;;;;12.43;11.23;;;;;;;2.62;78.57;96912.13;5034066;28;20029;-76
2023/02/25 04:10:21;;;;;;;12.30;11.02;;;;;;;2.65;78.92;96911.69;5034277;28;20024;-75
2023/02/25 04:12:46;;;;;;;11.68;9.95;;;;;;;2.68;78.17;96922.66;5034402;28;20039;-76
2023/02/25 04:15:14;;;;;;;12.27;11.07;;;;;;;2.62;77.99;96909.47;5033523;28;20025;-76
2023/02/25 04:17:40;;;;;;;12.88;11.70;;;;;;;2.63;78.78;96922.56;5034283;28;20047;-76
2023/02/25 04:20:06;;;;;;;13.93;10.73;;;;;;;2.67;78.29;96921.06;5033796;28;20143;-76
2023/02/25 04:22:32;;;;;;;13.73;12.60;;;;;;;2.64;79.44;96921.50;5017285;28;20440;-75
2023/02/25 04:24:57;;;;;;;14.02;12.63;;;;;;;2.59;78.86;96917.91;5050247;28;20046;-75
2023/02/25 04:27:23;;;;;;;13.40;12.00;;;;;;;2.58;79.02;96930.38;5033629;28;20057;-76
2023/02/25 04:29:48;;;;;;;17.85;13.40;;;;;;;2.55;78.88;96938.78;5050386;28;20495;-76
2023/02/25 04:32:13;;;;;;;13.50;12.10;;;;;;;2.66;79.39;96950.53;5033582;28;20040;-75
2023/02/25 04:34:39;;;;;;;14.50;13.25;;;;;;;2.63;79.53;96943.81;5033881;28;20027;-77
2023/02/25 04:37:04;;;;;;;15.85;14.45;;;;;;;2.59;79.84;96945.28;5034728;28;20094;-76
2023/02/25 04:39:31;;;;;;;15.60;11.55;;;;;;;2.56;78.63;96951.06;5034600;28;20029;-75
2023/02/25 04:41:57;;;;;;;15.18;13.93;;;;;;;2.54;79.75;96937.19;5034800;28;20087;-77
2023/02/25 04:44:22;;;;;;;15.88;13.48;;;;;;;2.45;79.68;96938.50;5050215;28;20052;-74
2023/02/25 04:46:51;;;;;;;14.88;13.57;;;;;;;2.43;79.95;96939.78;5033282;28;20029;-74
2023/02/25 04:49:21;;;;;;;16.50;14.05;;;;;;;2.45;79.89;96935.06;5049917;28;20428;-74
2023/02/25 04:51:48;;;;;;;13.70;12.35;;;;;;;2.44;79.32;96920.97;5033394;28;20048;-74
2023/02/25 04:54:14;;;;;;;14.25;12.88;;;;;;;2.50;79.43;96927.22;5030031;28;20021;-74
2023/02/25 04:56:39;;;;;;;16.73;14.25;;;;;;;2.52;79.84;96930.47;5040982;28;20459;-75
2023/02/25 04:59:05;;;;;;;15.93;14.52;;;;;;;2.47;79.33;96936.47;5036733;28;20020;-76
2023/02/25 05:01:31;;;;;;;15.55;14.15;;;;;;;2.34;79.96;96910.06;5033291;28;20504;-75
2023/02/25 05:03:59;;;;;;;15.93;14.23;;;;;;;2.40;79.05;96906.53;5033139;28;20024;-75
2023/02/25 05:06:28;;;;;;;17.67;16.00;;;;;;;2.40;79.13;96914.50;5033425;28;20421;-76
2023/02/25 05:08:56;;;;;;;14.55;13.05;;;;;;;2.48;78.92;96916.81;5033503;28;20025;-76
2023/02/25 05:11:22;;;;;;;16.63;12.80;;;;;;;2.49;78.59;96915.78;5033660;28;20097;-77
2023/02/25 05:13:48;;;;;;;16.15;14.75;;;;;;;2.50;79.20;96924.56;5033267;28;20103;-77
2023/02/25 05:16:15;;;;;;;72.15;51.65;;;;;;;2.48;77.73;96914.16;5038364;28;20540;-76
2023/02/25 05:18:42;;;;;;;16.10;14.18;;;;;;;2.59;78.34;96918.69;5048918;28;20057;-73
2023/02/25 05:21:19;;;;;;;13.90;12.70;;;;;;;2.54;77.56;96931.06;5049820;28;20040;-75
2023/02/25 05:23:46;;;;;;;11.63;10.48;;;;;;;2.56;78.27;96937.78;5049375;28;20044;-75
2023/02/25 05:26:13;;;;;;;12.15;11.00;;;;;;;2.53;77.53;96932.91;5032781;28;20083;-76
2023/02/25 05:28:38;;;;;;;13.95;9.98;;;;;;;2.55;78.29;96949.44;5049592;28;20119;-75
2023/02/25 05:31:09;;;;;;;14.82;11.70;;;;;;;2.50;78.08;96951.94;5050732;28;20037;-74
2023/02/25 05:33:35;;;;;;;13.73;11.13;;;;;;;2.57;76.80;96955.31;5032789;28;20041;-74
2023/02/25 05:36:00;;;;;;;14.35;12.10;;;;;;;2.51;77.98;96955.41;5049387;28;20036;-74
2023/02/25 05:38:27;;;;;;;13.35;11.55;;;;;;;2.53;78.57;96954.16;5049420;28;20029;-74
2023/02/25 05:40:53;;;;;;;14.80;13.20;;;;;;;2.49;77.63;96950.34;5033002;28;20107;-74
2023/02/25 05:43:18;;;;;;;12.05;10.35;;;;;;;2.50;77.79;96951.94;5049397;28;20039;-74
2023/02/25 05:45:50;;;;;;;14.40;12.13;;;;;;;2.57;77.79;96962.47;5049287;28;20028;-74
2023/02/25 05:48:16;;;;;;;16.35;12.80;;;;;;;2.31;78.03;96939.72;5032829;28;20045;-74
2023/02/25 05:50:41;;;;;;;15.07;11.80;;;;;;;2.47;78.04;96957.72;5050555;28;20031;-73
2023/02/25 05:53:08;;;;;;;16.73;12.90;;;;;;;2.49;78.51;96960.97;5049061;28;20040;-74
2023/02/25 05:55:34;;;;;;;14.93;13.65;;;;;;;2.47;78.43;96962.22;5049142;28;20417;-75
2023/02/25 05:57:59;;;;;;;14.73;13.32;;;;;;;2.41;77.10;96944.50;5049341;28;20033;-76
2023/02/25 06:00:24;;;;;;;11.93;10.57;;;;;;;2.45;77.87;96965.06;5049087;28;20025;-75
2023/02/25 06:02:50;;;;;;;11.93;10.88;;;;;;;2.39;78.06;96963.31;5032768;28;20036;-75
2023/02/25 06:05:16;;;;;;;13.77;11.95;;;;;;;2.43;77.91;96961.84;5049522;28;20108;-77
2023/02/25 06:07:41;;;;;;;14.10;12.18;;;;;;;2.33;77.85;96948.28;5032665;28;20033;-77
2023/02/25 06:10:07;;;;;;;14.15;12.68;;;;;;;2.45;78.47;96975.72;5049747;28;20063;-77
2023/02/25 06:12:33;;;;;;;16.60;13.70;;;;;;;2.39;77.46;96960.66;5016796;28;20041;-77
2023/02/25 06:14:59;;;;;;;15.98;14.35;;;;;;;2.35;78.26;96964.81;5050048;28;20021;-77
2023/02/25 06:17:24;;;;;;;17.52;13.25;;;;;;;2.44;78.67;96974.09;5036094;28;20033;-75
2023/02/25 06:19:51;;;;;;;17.13;12.35;;;;;;;2.31;78.07;96960.97;5019992;28;20112;-77
2023/02/25 06:22:20;;;;;;;15.93;13.80;;;;;;;2.49;78.29;96981.41;5036173;28;20075;-76
2023/02/25 06:24:46;;;;;;;14.10;12.82;;;;;;;2.36;79.31;96978.88;5052769;28;20071;-76
2023/02/25 06:27:12;;;;;;;18.48;13.57;;;;;;;2.42;78.09;96976.16;5052569;28;20597;-75
2023/02/25 06:29:41;;;;;;;14.90;13.38;;;;;;;2.41;78.09;96969.22;5036013;28;20024;-75
2023/02/25 06:32:08;;;;;;;15.52;12.13;;;;;;;2.42;76.92;96981.50;5015987;28;20405;-75
2023/02/25 06:34:34;;;;;;;17.42;14.43;;;;;;;2.39;77.59;96981.91;5035742;28;20083;-76
2023/02/25 06:36:59;;;;;;;15.27;13.77;;;;;;;2.35;77.78;96970.13;5052580;28;20451;-77
2023/02/25 06:39:25;;;;;;;19.50;16.98;;;;;;;2.46;77.28;96971.22;5054020;28;20025;-76
2023/02/25 06:41:51;;;;;;;14.77;12.88;;;;;;;2.40;77.84;96972.94;5053408;28;20036;-75
2023/02/25 06:44:16;;;;;;;15.73;14.02;;;;;;;2.36;77.98;96969.06;5036087;28;20383;-76
2023/02/25 06:46:42;;;;;;;16.33;12.65;;;;;;;2.30;77.25;96977.94;5052406;28;20112;-76
2023/02/25 06:49:07;;;;;;;17.90;16.08;;;;;;;2.35;77.90;96988.72;5053518;28;20061;-76
2023/02/25 06:51:32;;;;;;;18.77;14.23;;;;;;;2.30;77.96;96974.47;5052162;28;20043;-76
2023/02/25 06:53:58;;;;;;;16.58;14.20;;;;;;;2.37;78.44;96984.00;5035658;28;20041;-75
2023/02/25 06:56:25;;;;;;;15.82;14.23;;;;;;;2.41;77.95;96985.16;5035416;28;20045;-77
2023/02/25 06:58:52;;;;;;;14.63;13.20;;;;;;;2.38;77.63;96990.13;5035587;28;20025;-76
2023/02/25 07:01:17;;;;;;;17.15;13.60;;;;;;;2.32;77.36;96988.34;5015706;28;20034;-75
2023/02/25 07:03:43;;;;;;;15.55;12.80;;;;;;;2.37;76.99;96999.94;5048346;28;20490;-76
2023/02/25 07:06:09;;;;;;;17.33;13.02;;;;;;;2.42;76.56;97001.91;5018698;28;20032;-76
2023/02/25 07:08:34;;;;;;;11.60;9.82;;;;;;;2.44;77.47;97008.63;5051749;28;20021;-76
2023/02/25 07:11:10;;;;;;;13.45;12.05;;;;;;;2.45;76.65;97004.94;5035334;28;20488;-75
2023/02/25 07:13:35;;;;;;;;;;;;;;;2.44;77.24;97005.97;5052078;28;20037;-73
2023/02/25 07:16:01;;;;;;;14.13;12.63;;;;;;;2.48;77.27;97001.03;5018514;28;19912;-76
2023/02/25 07:18:26;;;;;;;13.73;12.43;;;;;;;2.46;77.56;97009.22;5035476;28;20548;-76
2023/02/25 07:20:52;;;;;;;17.45;13.23;;;;;;;2.51;77.18;97000.59;5051579;28;20032;-75
2023/02/25 07:23:17;;;;;;;14.95;13.05;;;;;;;2.45;77.48;97002.28;5034862;28;20029;-76
2023/02/25 07:25:42;;;;;;;12.65;11.30;;;;;;;2.58;76.62;96991.50;5034911;28;20442;-76
2023/02/25 07:28:08;;;;;;;14.95;12.93;;;;;;;2.54;76.72;96985.03;5049953;28;20037;-74
2023/02/25 07:30:33;;;;;;;14.35;12.05;;;;;;;2.47;76.98;97010.84;5017961;28;20510;-75
2023/02/25 07:32:58;;;;;;;12.45;11.25;;;;;;;2.45;76.69;97001.47;5015452;28;20084;-77
2023/02/25 07:35:24;;;;;;;12.38;11.07;;;;;;;2.49;76.56;97011.44;5046479;28;20056;-75
2023/02/25 07:37:49;;;;;;;15.85;10.57;;;;;;;2.51;76.48;97006.72;5051266;28;20029;-75
2023/02/25 07:40:15;;;;;;;18.10;12.55;;;;;;;2.60;77.40;97021.31;5051494;28;20413;-76
2023/02/25 07:42:41;;;;;;;13.18;11.82;;;;;;;2.50;76.42;97023.69;5035159;28;20045;-75
2023/02/25 07:45:08;;;;;;;14.93;13.32;;;;;;;2.54;76.67;97027.53;5034557;28;20025;-76
2023/02/25 07:47:33;;;;;;;15.48;13.95;;;;;;;2.58;76.68;97036.69;5034636;28;20099;-76
2023/02/25 07:49:59;;;;;;;14.20;11.75;;;;;;;2.64;76.83;97035.78;5034623;28;20025;-77
2023/02/25 07:52:24;;;;;;;15.60;9.85;;;;;;;2.67;76.12;97038.00;5034505;28;20047;-75
2023/02/25 07:54:49;;;;;;;12.75;11.43;;;;;;;2.78;76.47;97039.91;5034650;28;20056;-77
2023/02/25 07:57:15;;;;;;;12.70;10.68;;;;;;;2.86;76.12;97040.63;5034472;28;20385;-76
2023/02/25 07:59:40;;;;;;;14.20;10.82;;;;;;;2.87;76.25;97035.06;5034237;28;20037;-75
2023/02/25 08:02:09;;;;;;;15.88;11.15;;;;;;;2.94;75.33;97033.13;5050982;28;20116;-76
2023/02/25 08:04:35;;;;;;;13.27;11.60;;;;;;;3.07;75.83;97037.47;5050979;28;20016;-76
2023/02/25 08:07:01;;;;;;;16.00;12.57;;;;;;;3.08;76.08;97041.78;5050920;28;20106;-75
2023/02/25 08:09:26;;;;;;;17.77;12.35;;;;;;;3.15;76.09;97034.53;5034586;28;20029;-77
2023/02/25 08:11:51;;;;;;;14.27;9.88;;;;;;;2.97;75.68;97031.88;5018017;28;20039;-76
2023/02/25 08:14:17;;;;;;;14.80;11.80;;;;;;;3.12;75.77;97034.97;5052233;28;20531;-76
2023/02/25 08:16:42;;;;;;;9.93;8.90;;;;;;;3.15;75.08;97034.53;5052045;28;20041;-77
2023/02/25 08:19:08;;;;;;;13.57;10.45;;;;;;;3.25;74.97;97024.13;5030911;28;20028;-77
2023/02/25 08:21:33;;;;;;;12.95;9.63;;;;;;;3.19;75.56;97033.03;5046586;28;20083;-76
2023/02/25 08:23:59;;;;;;;14.77;10.52;;;;;;;3.22;75.68;97048.53;5050449;28;20079;-76
2023/02/25 08:26:26;;;;;;;13.45;8.60;;;;;;;3.27;74.49;97046.00;5033880;28;20087;-76
2023/02/25 08:28:52;;;;;;;12.68;9.27;;;;;;;3.15;74.94;97037.19;5050763;28;20388;-75
2023/02/25 08:31:18;;;;;;;13.40;10.18;;;;;;;3.25;74.71;97042.75;5050523;28;20040;-75
2023/02/25 08:33:52;;;;;;;11.13;9.13;;;;;;;3.26;74.51;97047.03;5017585;28;20017;-76
2023/02/25 08:36:23;;;;;;;11.60;8.52;;;;;;;3.25;73.35;97034.75;5050360;28;20094;-75
2023/02/25 08:38:50;;;;;;;11.85;7.25;;;;;;;3.26;74.61;97047.03;5050418;28;20033;-77
2023/02/25 08:41:16;;;;;;;10.63;7.72;;;;;;;3.26;73.84;97041.72;5017237;28;20076;-76
2023/02/25 08:43:41;;;;;;;10.32;7.65;;;;;;;3.27;74.83;97044.16;5050921;28;20045;-77
2023/02/25 08:46:07;;;;;;;10.45;8.20;;;;;;;3.36;75.28;97049.97;5036072;28;20086;-77
2023/02/25 08:48:34;;;;;;;11.48;8.63;;;;;;;3.30;74.52;97049.03;5033385;28;20033;-77
2023/02/25 08:51:07;;;;;;;12.35;8.60;;;;;;;3.32;73.80;97051.44;5049940;28;20024;-77
2023/02/25 08:53:37;;;;;;;12.07;8.02;;;;;;;3.17;74.12;97048.41;5033857;28;20098;-77
2023/02/25 08:56:04;;;;;;;10.82;7.38;;;;;;;3.28;74.88;97047.63;5030144;28;20037;-76
2023/02/25 08:58:30;;;;;;;12.68;7.45;;;;;;;3.23;74.38;97047.47;5042019;28;20576;-77
2023/02/25 09:00:56;;;;;;;14.15;8.43;;;;;;;3.20;74.87;97021.31;5033270;28;20029;-76
2023/02/25 09:03:21;;;;;;;12.85;8.07;;;;;;;3.34;74.93;97044.03;5049663;28;20461;-77
2023/02/25 09:05:51;;;;;;;10.57;8.50;;;;;;;3.32;74.79;97054.09;5016796;28;20072;-77
2023/02/25 09:08:17;;;;;;;12.85;8.73;;;;;;;3.34;74.33;97044.03;5050070;28;20044;-77
2023/02/25 09:10:42;;;;;;;14.20;8.82;;;;;;;3.42;74.08;97046.41;5033649;28;20074;-75
2023/02/25 09:13:08;;;;;;;13.13;8.15;;;;;;;3.50;74.14;97046.09;5033310;28;20041;-77
2023/02/25 09:15:33;;;;;;;12.70;7.25;;;;;;;3.47;72.97;97049.19;5029755;28;20029;-77
2023/02/25 09:17:58;;;;;;;11.70;8.25;;;;;;;3.32;73.65;97048.78;5043042;28;20037;-76
2023/02/25 09:20:24;;;;;;;18.48;8.77;;;;;;;3.42;74.29;97047.22;5049675;28;20074;-77
2023/02/25 09:22:50;;;;;;;12.38;8.60;;;;;;;3.42;73.96;97049.06;5049574;28;20098;-76
2023/02/25 09:25:15;;;;;;;13.18;9.05;;;;;;;3.66;74.22;97048.09;5032898;28;20472;-76
2023/02/25 09:27:41;;;;;;;12.43;7.40;;;;;;;3.57;72.85;97044.09;5016447;28;20048;-75
2023/02/25 09:30:07;;;;;;;12.90;6.75;;;;;;;3.60;72.84;97054.31;5049708;28;20043;-76
2023/02/25 09:32:32;;;;;;;8.55;7.28;;;;;;;3.78;73.83;97056.88;5074363;22;20613;-75
2023/02/25 09:35:03;;;;;;;10.35;6.80;;;;;;;3.77;72.75;97049.94;5011066;28;20042;-74
2023/02/25 09:37:29;;;;;;;11.93;6.07;;;;;;;3.75;71.50;97056.53;5025313;28;20037;-75
2023/02/25 09:39:55;;;;;;;11.70;6.05;;;;;;;3.79;72.09;97058.50;5032083;28;20096;-76
2023/02/25 09:42:27;;;;;;;8.75;6.97;;;;;;;3.97;72.28;97045.09;5011180;28;20034;-76
2023/02/25 09:44:56;;;;;;;9.23;5.43;;;;;;;4.25;72.16;97046.28;5011094;28;20041;-75
2023/02/25 09:47:44;;;;;;;10.27;6.90;;;;;;;4.18;70.89;97041.03;5006264;28;20037;-77
2023/02/25 09:50:20;;;;;;;13.48;6.82;;;;;;;4.06;72.05;97050.91;5006785;28;20472;-76
2023/02/25 09:53:14;;;;;;;12.02;8.40;;;;;;;4.46;70.82;97053.63;5011965;28;20569;-75
2023/02/25 09:55:41;;;;;;;11.15;6.22;;;;;;;4.22;71.86;97044.06;5008885;28;20047;-76
2023/02/25 09:58:31;;;;;;;10.10;6.32;;;;;;;3.98;71.17;97041.41;5023935;28;20025;-76
2023/02/25 10:01:04;;;;;;;10.18;5.75;;;;;;;3.96;71.63;97040.81;5020645;28;20074;-76
2023/02/25 10:03:40;;;;;;;11.68;7.50;;;;;;;3.89;73.23;97032.13;5014695;28;20045;-76
2023/02/25 10:06:10;;;;;;;;;;;;;;;3.67;71.23;97033.72;5025193;28;20038;-76
2023/02/25 10:08:51;;;;;;;13.88;6.05;;;;;;;3.66;72.25;97048.09;4994239;28;19921;-75
2023/02/25 10:11:40;;;;;;;7.30;5.85;;;;;;;3.72;71.47;97038.34;5025303;28;20040;-76
2023/02/25 10:14:19;;;;;;;9.70;6.70;;;;;;;3.82;72.13;97036.75;5013314;28;20473;-75
2023/02/25 10:17:22;;;;;;;12.27;6.05;;;;;;;3.83;72.00;97038.38;5000372;28;20033;-76
2023/02/25 10:20:37;;;;;;;9.60;5.90;;;;;;;3.88;72.19;97024.34;5014888;28;20687;-76
2023/02/25 10:23:23;;;;;;;8.88;6.50;;;;;;;4.04;71.10;97024.47;4999411;28;20564;-75
2023/02/25 10:26:00;;;;;;;7.90;6.60;;;;;;;4.07;72.03;97034.69;5007491;28;20034;-74
2023/02/25 10:28:26;;;;;;;9.15;5.85;;;;;;;4.11;71.14;97035.00;5017889;28;20072;-78
2023/02/25 10:31:06;;;;;;;8.00;5.82;;;;;;;3.96;72.62;97032.84;5011374;28;20032;-75
2023/02/25 10:33:39;;;;;;;9.18;7.20;;;;;;;3.84;72.28;97023.19;4999671;28;20033;-76
2023/02/25 10:36:11;;;;;;;7.13;6.30;;;;;;;3.94;72.46;97024.28;4997931;28;20029;-75
2023/02/25 10:38:41;;;;;;;9.00;6.60;;;;;;;4.17;71.85;97016.28;5023137;28;20029;-76
2023/02/25 10:41:07;;;;;;;12.80;7.38;;;;;;;4.27;72.49;97022.88;5029711;28;20505;-74
2023/02/25 10:43:33;;;;;;;7.95;6.53;;;;;;;4.28;72.16;97019.13;4996359;28;20104;-75
2023/02/25 10:46:24;;;;;;;8.48;7.68;;;;;;;4.04;73.63;97008.50;5012762;28;20040;-75
2023/02/25 10:48:55;;;;;;;11.02;10.05;;;;;;;3.78;75.62;97029.47;5019258;28;20038;-75
2023/02/25 10:51:21;;;;;;;17.75;16.10;;;;;;;3.52;77.98;97036.00;5012552;28;20571;-75
2023/02/25 10:53:52;;;;;;;20.77;19.52;;;;;;;3.46;79.31;97047.56;5025604;28;20021;-75
2023/02/25 10:56:19;;;;;;;24.90;23.08;;;;;;;3.16;81.92;97036.13;5012707;28;20040;-75
2023/02/25 10:58:59;;;;;;;25.17;23.73;;;;;;;3.27;80.82;97053.97;5025907;28;20479;-75
2023/02/25 11:01:34;;;;;;;25.13;23.55;;;;;;;3.36;81.29;97042.00;5006306;28;20099;-76
2023/02/25 11:04:02;;;;;;;27.70;26.03;;;;;;;3.53;81.77;97042.13;5018931;28;20064;-75
2023/02/25 11:06:34;;;;;;;27.13;25.33;;;;;;;3.83;79.90;97038.38;5012504;28;20084;-76
2023/02/25 11:09:00;;;;;;;23.48;21.98;;;;;;;3.76;77.95;97035.00;5009774;28;20121;-76
2023/02/25 11:11:28;;;;;;;20.48;19.27;;;;;;;3.85;78.50;97035.50;5012470;28;20034;-75
2023/02/25 11:14:06;;;;;;;22.25;21.05;;;;;;;3.74;78.77;97038.94;5025287;28;20042;-75
2023/02/25 11:16:37;;;;;;;22.65;21.23;;;;;;;3.83;80.16;97046.34;5025510;28;20452;-75
2023/02/25 11:19:24;;;;;;;21.20;19.70;;;;;;;3.49;79.26;97037.28;5004384;28;20037;-75
2023/02/25 11:21:50;;;;;;;19.08;18.08;;;;;;;3.58;79.66;97040.41;5026780;28;20037;-75
2023/02/25 11:24:16;;;;;;;21.60;20.40;;;;;;;3.64;78.46;97044.81;5016817;28;20021;-75
2023/02/25 11:26:44;;;;;;;26.27;24.63;;;;;;;3.68;80.28;97039.84;5013658;28;20516;-76
2023/02/25 11:29:17;;;;;;;21.52;20.23;;;;;;;3.86;79.02;97037.91;4991350;28;20444;-75
2023/02/25 11:31:44;;;;;;;20.05;18.77;;;;;;;3.72;78.02;97031.19;5009477;28;20046;-75
2023/02/25 11:34:19;;;;;;;20.17;18.88;;;;;;;3.83;79.18;97027.72;5011564;28;20113;-75
2023/02/25 11:36:44;;;;;;;23.63;22.33;;;;;;;3.74;79.96;97029.09;5000192;28;20374;-75
2023/02/25 11:39:22;;;;;;;21.75;20.45;;;;;;;3.38;79.85;97039.91;5012559;28;20037;-75